»·PEaware :: N62P KHAF-KHHR

N62P :: KHAF-KHHR

FLIGHT INFORMATION

Flight Status: Arrived
Operator: Privately registered:
United States
More flights under this callsign
Pilot: Ryan B. (8502)
Aircraft: CESSNA 208 CARAVAN
(C208)
More flights by this aircraft type
Origin: KHAF Half Moon Bay
United States
Destination: KHHR Northrop/Hawthorne Mun
United States
More flights between these airports :: More routes between these airports
Route: +OSI V25 VTU V299 LAX
File this flight plan on PilotEdge
Remarks:
Altitude:
(Current/Filed)
21,000ft
Speed:
(Current/Filed)
180kts
Departed: 15-Sep-17 04:07 PM
Arrived: 15-Sep-17 04:54 PM
Distance/Time
Traveled:
296nm/0:47
Distance/Time
To Go:
Arrived

Flight Plot

Page will automatically refresh every two minutes.

Flight plan parsing failed; only flown route is shown


Map Options




Map Legend


Flown Route
Filed Route
Departure Airport
Arrival Airport
Navaid (VOR, NDB)
Fix

Horizontal Profiles

Position Reports

Time Latitude Longitude Heading Altitude Ground
Speed
15-Sep-17 16:10 35.607464 -120.579323 148 20946ft 206kts
15-Sep-17 16:11 35.558338 -120.542599 148 20947ft 207kts
15-Sep-17 16:12 35.509348 -120.505983 148 20949ft 207kts
15-Sep-17 16:13 35.460220 -120.469384 148 20965ft 206kts
15-Sep-17 16:14 35.411286 -120.433020 148 20982ft 206kts
15-Sep-17 16:15 35.362525 -120.396804 148 20999ft 206kts
15-Sep-17 16:16 35.313455 -120.360410 148 21003ft 207kts
15-Sep-17 16:17 35.264412 -120.324104 149 20999ft 207kts
15-Sep-17 16:18 35.215342 -120.287838 149 20995ft 207kts
15-Sep-17 16:19 35.165996 -120.251438 149 20993ft 207kts
15-Sep-17 16:20 35.116809 -120.215142 149 20992ft 207kts
15-Sep-17 16:21 35.067487 -120.178831 149 20990ft 207kts
15-Sep-17 16:22 35.018265 -120.142611 149 20986ft 207kts
15-Sep-17 16:23 34.968794 -120.106289 149 20984ft 208kts
15-Sep-17 16:24 34.919319 -120.069997 150 20981ft 208kts
15-Sep-17 16:25 34.870301 -120.034096 150 20975ft 208kts
15-Sep-17 16:26 34.820763 -119.997924 150 20972ft 208kts
15-Sep-17 16:27 34.772677 -119.962835 150 20969ft 208kts
15-Sep-17 16:28 34.723090 -119.926695 150 20966ft 208kts
15-Sep-17 16:29 34.673561 -119.890658 150 20961ft 208kts
15-Sep-17 16:30 34.623837 -119.854529 150 20957ft 208kts
15-Sep-17 16:31 34.574131 -119.818460 150 20954ft 208kts
15-Sep-17 16:32 34.524465 -119.782464 150 20949ft 208kts
15-Sep-17 16:33 34.486985 -119.730894 121 20947ft 209kts
15-Sep-17 16:34 34.455176 -119.671668 122 20947ft 209kts
15-Sep-17 16:35 34.423280 -119.612905 122 20947ft 210kts
15-Sep-17 16:36 34.391132 -119.553811 122 20948ft 210kts
15-Sep-17 16:37 34.358377 -119.493695 122 20502ft 226kts
15-Sep-17 16:38 34.323429 -119.429723 122 19422ft 229kts
15-Sep-17 16:39 34.287285 -119.363634 122 18275ft 241kts
15-Sep-17 16:40 34.250805 -119.297060 122 17268ft 239kts
15-Sep-17 16:41 34.214613 -119.231147 122 16168ft 232kts
15-Sep-17 16:42 34.179227 -119.166796 122 14993ft 229kts
15-Sep-17 16:43 34.144260 -119.103330 122 13914ft 225kts
15-Sep-17 16:44 34.112023 -119.040385 106 12844ft 216kts
15-Sep-17 16:45 34.094053 -118.972186 105 11851ft 211kts
15-Sep-17 16:46 34.076264 -118.905182 106 10860ft 209kts
15-Sep-17 16:47 34.058724 -118.838943 107 9865ft 205kts
15-Sep-17 16:48 34.041252 -118.773749 107 8869ft 203kts
15-Sep-17 16:49 34.021760 -118.710801 111 7870ft 198kts
15-Sep-17 16:50 34.002152 -118.649123 110 6875ft 196kts
15-Sep-17 16:51 33.982688 -118.587931 111 6026ft 194kts
15-Sep-17 16:52 33.963943 -118.529105 111 5950ft 186kts
15-Sep-17 16:53 33.940850 -118.472781 118 4583ft 190kts
15-Sep-17 16:54 33.917494 -118.416770 118 3129ft 186kts
15-Sep-17 16:55 33.901008 -118.367695 91 2519ft 143kts
15-Sep-17 16:56 33.902581 -118.322884 89 1334ft 132kts
15-Sep-17 16:57 33.919807 -118.310516 309 636ft 89kts
15-Sep-17 16:58 33.922935 -118.333633 264 61ft 27kts
15-Sep-17 16:59 33.922651 -118.330429 95 59ft 11kts
15-Sep-17 17:00 33.922061 -118.330216 270 58ft 0kts

Navigation Log

Ident Type
Flight plan parsing failed, navigation log unavailable